createdAt,value
2017-09-16T00:00:05.964Z,89.36
2017-09-16T00:01:05.920Z,89.36
2017-09-16T00:02:05.881Z,89.26
2017-09-16T00:03:05.845Z,89.26
2017-09-16T00:04:05.809Z,89.74
2017-09-16T00:05:05.774Z,89.64
2017-09-16T00:06:05.737Z,89.93
2017-09-16T00:07:05.700Z,89.54
2017-09-16T00:08:05.666Z,89.83
2017-09-16T00:09:05.628Z,89.83
2017-09-16T00:10:05.590Z,89.93
2017-09-16T00:11:05.557Z,90.03
2017-09-16T00:12:05.519Z,89.74
2017-09-16T00:13:05.483Z,89.64
2017-09-16T00:14:05.445Z,89.74
2017-09-16T00:15:05.411Z,89.74
2017-09-16T00:16:05.384Z,89.74
2017-09-16T00:17:05.336Z,89.64
2017-09-16T00:18:05.299Z,89.54
2017-09-16T00:19:05.266Z,90.03
2017-09-16T00:20:05.228Z,89.64
2017-09-16T00:21:05.192Z,89.98
2017-09-16T00:22:05.155Z,90.08
2017-09-16T00:23:05.119Z,89.98
2017-09-16T00:24:05.082Z,89.98
2017-09-16T00:25:05.046Z,90.55
2017-09-16T00:26:05.009Z,90.36
2017-09-16T00:27:04.983Z,90.36
2017-09-16T00:28:04.939Z,90.74
2017-09-16T00:29:04.901Z,89.60
2017-09-16T00:30:04.863Z,89.98
2017-09-16T00:31:04.831Z,90.45
2017-09-16T00:32:04.793Z,90.36
2017-09-16T00:33:04.756Z,90.36
2017-09-16T00:34:04.720Z,90.55
2017-09-16T00:35:04.681Z,89.79
2017-09-16T00:36:04.646Z,89.60
2017-09-16T00:37:04.619Z,89.60
2017-09-16T00:38:04.574Z,89.79
2017-09-16T00:39:04.537Z,89.79
2017-09-16T00:40:04.504Z,90.26
2017-09-16T00:41:04.466Z,89.69
2017-09-16T00:42:04.429Z,89.50
2017-09-16T00:43:04.392Z,89.60
2017-09-16T00:44:04.359Z,89.50
2017-09-16T00:45:04.336Z,89.40
2017-09-16T00:46:04.281Z,89.50
2017-09-16T00:47:04.246Z,89.12
2017-09-16T00:48:04.209Z,89.60
2017-09-16T00:49:04.172Z,89.69
2017-09-16T00:50:04.138Z,89.69
2017-09-16T00:51:04.100Z,89.22
2017-09-16T00:52:04.062Z,90.08
2017-09-16T00:53:04.027Z,89.89
2017-09-16T00:54:04.001Z,89.69
2017-09-16T00:55:03.960Z,89.69
2017-09-16T00:56:03.922Z,90.36
2017-09-16T00:57:03.880Z,90.17
2017-09-16T00:58:03.844Z,90.74
2017-09-16T00:59:03.810Z,90.74
2017-09-16T01:00:03.772Z,90.36
2017-09-16T01:01:03.743Z,90.64
2017-09-16T01:02:03.697Z,90.17
2017-09-16T01:03:03.660Z,89.50
2017-09-16T01:04:03.631Z,89.50
2017-09-16T01:05:03.630Z,89.69
2017-09-16T01:06:03.549Z,89.12
2017-09-16T01:07:03.514Z,89.40
2017-09-16T01:08:03.485Z,89.50
2017-09-16T01:09:03.443Z,89.12
2017-09-16T01:10:03.406Z,89.12
2017-09-16T01:11:03.372Z,89.12
2017-09-16T01:12:03.332Z,89.69
2017-09-16T01:13:03.296Z,89.98
2017-09-16T01:14:03.268Z,90.17
2017-09-16T01:15:03.222Z,90.45
2017-09-16T01:16:03.186Z,90.55
2017-09-16T01:17:03.148Z,90.74
2017-09-16T01:18:03.112Z,90.36
2017-09-16T01:19:03.076Z,90.26
2017-09-16T01:20:03.041Z,89.79
2017-09-16T01:21:03.006Z,90.36
2017-09-16T01:22:02.964Z,89.79
2017-09-16T01:23:02.930Z,90.17
2017-09-16T01:24:02.892Z,90.55
2017-09-16T01:25:02.865Z,89.98
2017-09-16T01:26:02.819Z,90.36
2017-09-16T01:27:02.783Z,90.17
2017-09-16T01:28:02.749Z,90.55
2017-09-16T01:29:02.728Z,90.55
2017-09-16T01:30:02.674Z,90.45
2017-09-16T01:31:02.638Z,90.74
2017-09-16T01:32:02.600Z,90.45
2017-09-16T01:33:02.563Z,90.36
2017-09-16T01:34:02.527Z,90.31
2017-09-16T01:35:02.490Z,90.45
2017-09-16T01:36:02.457Z,90.26
2017-09-16T01:37:02.418Z,90.08
2017-09-16T01:38:02.381Z,90.08
2017-09-16T01:39:02.343Z,90.03
2017-09-16T01:40:02.312Z,89.55
2017-09-16T01:41:02.278Z,90.31
2017-09-16T01:42:02.240Z,90.50
2017-09-16T01:43:02.196Z,89.89
2017-09-16T01:44:02.175Z,90.41
2017-09-16T01:45:02.135Z,90.41
2017-09-16T01:46:02.089Z,90.22
2017-09-16T01:47:02.071Z,90.22
2017-09-16T01:48:02.013Z,90.70
2017-09-16T01:49:01.982Z,90.41
2017-09-16T01:50:01.944Z,90.70
2017-09-16T01:51:01.913Z,90.41
2017-09-16T01:52:01.870Z,90.03
2017-09-16T01:53:01.845Z,90.70
2017-09-16T01:54:01.793Z,90.41
2017-09-16T01:55:01.768Z,90.31
2017-09-16T01:56:01.742Z,90.12
2017-09-16T01:57:01.692Z,89.65
2017-09-16T01:58:01.668Z,90.03
2017-09-16T01:59:01.625Z,90.31
2017-09-16T02:00:01.584Z,90.03
2017-09-16T02:01:01.536Z,89.46
2017-09-16T02:02:01.574Z,89.65
2017-09-16T02:03:01.465Z,89.84
2017-09-16T02:04:01.430Z,89.65
2017-09-16T02:05:01.391Z,89.65
2017-09-16T02:06:01.363Z,89.84
2017-09-16T02:07:01.344Z,89.84
2017-09-16T02:08:01.277Z,89.75
2017-09-16T02:09:01.250Z,89.65
2017-09-16T02:10:01.220Z,89.46
2017-09-16T02:11:01.192Z,89.07
2017-09-16T02:12:01.191Z,89.55
2017-09-16T02:13:01.106Z,89.84
2017-09-16T02:14:01.061Z,89.84
2017-09-16T02:15:01.042Z,90.22
2017-09-16T02:16:01.000Z,89.84
2017-09-16T02:17:00.949Z,89.75
2017-09-16T02:18:00.911Z,89.75
2017-09-16T02:19:00.917Z,90.31
2017-09-16T02:20:00.846Z,89.84
2017-09-16T02:21:00.808Z,89.94
2017-09-16T02:22:00.763Z,90.03
2017-09-16T02:23:00.741Z,89.55
2017-09-16T02:24:00.693Z,90.03
2017-09-16T02:25:00.656Z,89.55
2017-09-16T02:26:00.616Z,89.55
2017-09-16T02:27:00.595Z,89.65
2017-09-16T02:28:00.542Z,89.75
2017-09-16T02:29:00.509Z,89.65
2017-09-16T02:30:00.465Z,89.36
2017-09-16T02:31:00.428Z,89.46
2017-09-16T02:32:00.391Z,89.55
2017-09-16T02:33:00.354Z,90.41
2017-09-16T02:34:00.318Z,90.60
2017-09-16T02:35:00.280Z,90.79
2017-09-16T02:36:00.248Z,90.70
2017-09-16T02:37:00.206Z,90.98
2017-09-16T02:38:00.168Z,90.60
2017-09-16T02:39:00.134Z,90.41
2017-09-16T02:40:00.097Z,90.41
2017-09-16T02:41:00.059Z,90.60
2017-09-16T02:42:00.021Z,90.31
2017-09-16T02:42:59.991Z,90.79
2017-09-16T02:43:59.949Z,90.03
2017-09-16T02:44:59.920Z,90.60
2017-09-16T02:45:59.873Z,90.70
2017-09-16T02:46:59.839Z,90.79
2017-09-16T02:47:59.800Z,90.94
2017-09-16T02:48:59.763Z,91.08
2017-09-16T02:49:59.724Z,90.60
2017-09-16T02:50:59.691Z,91.03
2017-09-16T02:51:59.654Z,90.60
2017-09-16T02:52:59.620Z,90.98
2017-09-16T02:53:59.578Z,90.41
2017-09-16T02:54:59.540Z,90.03
2017-09-16T02:55:59.509Z,90.60
2017-09-16T02:56:59.464Z,90.31
2017-09-16T02:57:59.429Z,90.41
2017-09-16T02:58:59.390Z,90.31
2017-09-16T02:59:59.359Z,90.03
2017-09-16T03:00:59.318Z,90.03
2017-09-16T03:01:59.286Z,89.46
2017-09-16T03:02:59.243Z,89.84
2017-09-16T03:03:59.206Z,90.22
2017-09-16T03:04:59.172Z,90.79
2017-09-16T03:05:59.134Z,90.12
2017-09-16T03:06:59.094Z,90.50
2017-09-16T03:07:59.057Z,90.31
2017-09-16T03:08:59.021Z,90.31
2017-09-16T03:09:58.983Z,90.22
2017-09-16T03:10:58.944Z,90.50
2017-09-16T03:11:58.908Z,90.27
2017-09-16T03:12:58.871Z,90.36
2017-09-16T03:13:58.837Z,90.41
2017-09-16T03:14:58.798Z,90.89
2017-09-16T03:15:58.762Z,91.27
2017-09-16T03:16:58.721Z,90.84
2017-09-16T03:17:58.684Z,90.36
2017-09-16T03:18:58.650Z,90.46
2017-09-16T03:19:58.613Z,90.36
2017-09-16T03:20:58.574Z,90.65
2017-09-16T03:21:58.537Z,90.75
2017-09-16T03:22:58.527Z,91.03
2017-09-16T03:23:58.462Z,90.94
2017-09-16T03:24:58.425Z,90.75
2017-09-16T03:25:58.388Z,90.46
2017-09-16T03:26:58.351Z,90.65
2017-09-16T03:27:58.314Z,90.75
2017-09-16T03:28:58.311Z,91.03
2017-09-16T03:29:58.247Z,91.51
2017-09-16T03:30:58.203Z,91.22
2017-09-16T03:31:58.167Z,91.13
2017-09-16T03:32:58.129Z,90.94
2017-09-16T03:33:58.100Z,91.31
2017-09-16T03:34:58.054Z,91.60
2017-09-16T03:35:58.019Z,91.70
2017-09-16T03:36:57.980Z,90.94
2017-09-16T03:37:57.942Z,91.41
2017-09-16T03:38:57.906Z,91.22
2017-09-16T03:39:57.870Z,91.79
2017-09-16T03:40:57.832Z,91.22
2017-09-16T03:41:57.793Z,91.03
2017-09-16T03:42:57.758Z,91.41
2017-09-16T03:43:57.727Z,91.51
2017-09-16T03:44:57.682Z,91.79
2017-09-16T03:45:57.644Z,91.70
2017-09-16T03:46:57.615Z,91.60
2017-09-16T03:47:57.567Z,91.51
2017-09-16T03:48:57.534Z,91.70
2017-09-16T03:49:57.495Z,91.89
2017-09-16T03:50:57.458Z,91.79
2017-09-16T03:51:57.421Z,91.51
2017-09-16T03:52:57.386Z,91.70
2017-09-16T03:53:57.346Z,91.60
2017-09-16T03:54:57.311Z,91.31
2017-09-16T03:55:57.274Z,90.94
2017-09-16T03:56:57.235Z,91.03
2017-09-16T03:57:57.199Z,91.22
2017-09-16T03:58:57.162Z,91.13
2017-09-16T03:59:57.124Z,91.79
2017-09-16T04:00:57.086Z,91.03
2017-09-16T04:01:57.056Z,91.60
2017-09-16T04:02:57.011Z,91.60
2017-09-16T04:03:56.984Z,91.41
2017-09-16T04:04:56.945Z,91.70
2017-09-16T04:05:56.900Z,92.18
2017-09-16T04:06:56.862Z,92.36
2017-09-16T04:07:56.825Z,92.18
2017-09-16T04:08:56.789Z,92.18
2017-09-16T04:09:56.748Z,92.08
2017-09-16T04:10:56.708Z,91.99
2017-09-16T04:11:56.679Z,92.18
2017-09-16T04:12:56.641Z,92.46
2017-09-16T04:13:56.606Z,91.99
2017-09-16T04:14:56.564Z,91.60
2017-09-16T04:15:56.535Z,91.70
2017-09-16T04:16:56.489Z,91.70
2017-09-16T04:17:56.457Z,92.18
2017-09-16T04:18:56.431Z,92.27
2017-09-16T04:19:56.379Z,92.36
2017-09-16T04:20:56.345Z,92.84
2017-09-16T04:21:56.302Z,92.46
2017-09-16T04:22:56.278Z,92.74
2017-09-16T04:23:56.228Z,92.36
2017-09-16T04:24:56.191Z,92.65
2017-09-16T04:25:56.167Z,92.36
2017-09-16T04:26:56.115Z,92.27
2017-09-16T04:27:56.080Z,92.08
2017-09-16T04:28:56.041Z,92.08
2017-09-16T04:29:56.014Z,92.74
2017-09-16T04:30:55.972Z,92.74
2017-09-16T04:31:55.930Z,92.65
2017-09-16T04:32:55.894Z,92.74
2017-09-16T04:33:55.860Z,92.55
2017-09-16T04:34:55.818Z,92.51
2017-09-16T04:35:55.784Z,92.89
2017-09-16T04:36:55.750Z,92.84
2017-09-16T04:37:55.708Z,93.13
2017-09-16T04:38:55.671Z,92.51
2017-09-16T04:39:55.634Z,92.74
2017-09-16T04:40:55.600Z,92.55
2017-09-16T04:41:55.558Z,92.55
2017-09-16T04:42:55.522Z,92.18
2017-09-16T04:43:55.498Z,92.27
2017-09-16T04:44:55.449Z,92.55
2017-09-16T04:45:55.409Z,92.36
2017-09-16T04:46:55.379Z,92.27
2017-09-16T04:47:55.345Z,91.99
2017-09-16T04:48:55.298Z,91.51
2017-09-16T04:49:55.257Z,91.70
2017-09-16T04:50:55.237Z,91.70
2017-09-16T04:51:55.205Z,91.41
2017-09-16T04:52:55.146Z,92.36
2017-09-16T04:53:55.107Z,92.46
2017-09-16T04:54:55.085Z,92.18
2017-09-16T04:55:55.035Z,91.51
2017-09-16T04:56:55.014Z,91.70
2017-09-16T04:57:54.967Z,91.60
2017-09-16T04:58:54.928Z,91.13
2017-09-16T04:59:54.886Z,90.36
2017-09-16T05:00:54.852Z,90.31
2017-09-16T05:01:54.811Z,89.07
2017-09-16T05:02:54.775Z,88.36
2017-09-16T05:03:54.734Z,87.36
2017-09-16T05:04:54.700Z,87.36
2017-09-16T05:05:54.659Z,87.36
2017-09-16T05:06:54.623Z,87.69
2017-09-16T05:07:54.586Z,86.45
2017-09-16T05:08:54.549Z,86.26
2017-09-16T05:09:54.511Z,86.65
2017-09-16T05:10:54.472Z,87.07
2017-09-16T05:11:54.437Z,87.36
2017-09-16T05:12:54.401Z,87.36
2017-09-16T05:13:54.371Z,87.65
2017-09-16T05:14:54.341Z,87.65
2017-09-16T05:15:54.289Z,86.21
2017-09-16T05:16:54.252Z,83.39
2017-09-16T05:17:54.215Z,80.61
2017-09-16T05:18:54.179Z,76.82
2017-09-16T05:19:54.142Z,74.66
2017-09-16T05:20:54.105Z,72.50
2017-09-16T05:21:54.067Z,71.07
2017-09-16T05:22:54.038Z,69.76
2017-09-16T05:23:53.995Z,68.62
2017-09-16T05:24:53.958Z,67.60
2017-09-16T05:25:53.930Z,66.86
2017-09-16T05:26:53.894Z,65.71
2017-09-16T05:27:53.851Z,65.26
2017-09-16T05:28:53.819Z,63.73
2017-09-16T05:29:53.781Z,63.48
2017-09-16T05:30:53.744Z,62.81
2017-09-16T05:31:53.712Z,62.23
2017-09-16T05:32:53.676Z,61.85
2017-09-16T05:33:53.640Z,61.21
2017-09-16T05:34:53.613Z,60.92
2017-09-16T05:35:53.569Z,60.05
2017-09-16T05:36:53.536Z,60.05
2017-09-16T05:37:53.506Z,59.12
2017-09-16T05:38:53.477Z,58.74
2017-09-16T05:39:53.435Z,58.07
2017-09-16T05:40:53.402Z,58.26
2017-09-16T05:41:53.367Z,59.12
2017-09-16T05:42:53.334Z,58.36
2017-09-16T05:43:53.302Z,57.50
2017-09-16T05:44:53.267Z,57.52
2017-09-16T05:45:53.240Z,57.01
2017-09-16T05:46:53.201Z,57.04
2017-09-16T05:47:53.168Z,56.85
2017-09-16T05:48:53.134Z,56.37
2017-09-16T05:49:53.102Z,55.82
2017-09-16T05:50:53.070Z,55.15
2017-09-16T05:51:53.037Z,55.05
2017-09-16T05:52:53.003Z,55.05
2017-09-16T05:53:52.970Z,54.50
2017-09-16T05:54:52.941Z,53.92
2017-09-16T05:55:52.906Z,53.64
2017-09-16T05:56:52.873Z,53.09
2017-09-16T05:57:52.843Z,52.22
2017-09-16T05:58:52.809Z,51.93
2017-09-16T05:59:52.778Z,51.57
2017-09-16T06:00:52.746Z,51.38
2017-09-16T06:01:52.713Z,50.90
2017-09-16T06:02:52.683Z,50.90
2017-09-16T06:03:52.652Z,51.02
2017-09-16T06:04:52.618Z,50.35
2017-09-16T06:05:52.588Z,50.81
2017-09-16T06:06:52.557Z,50.90
2017-09-16T06:07:52.527Z,49.87
2017-09-16T06:08:52.495Z,49.94
2017-09-16T06:09:52.464Z,50.25
2017-09-16T06:10:52.437Z,50.61
2017-09-16T06:11:52.402Z,49.77
2017-09-16T06:12:52.378Z,49.51
2017-09-16T06:13:52.339Z,48.74
2017-09-16T06:14:52.311Z,48.25
2017-09-16T06:15:52.298Z,48.35
2017-09-16T06:16:52.246Z,48.25
2017-09-16T06:17:52.217Z,47.89
2017-09-16T06:18:52.219Z,47.41
2017-09-16T06:19:52.157Z,46.83
2017-09-16T06:20:52.125Z,46.45
2017-09-16T06:21:52.098Z,46.28
2017-09-16T06:22:52.064Z,46.01
2017-09-16T06:23:52.036Z,45.41
2017-09-16T06:24:52.008Z,45.70
2017-09-16T06:25:51.973Z,45.41
2017-09-16T06:26:51.943Z,44.85
2017-09-16T06:27:51.926Z,45.04
2017-09-16T06:28:51.885Z,44.85
2017-09-16T06:29:51.854Z,44.87
2017-09-16T06:30:51.825Z,44.39
2017-09-16T06:31:51.797Z,44.10
2017-09-16T06:32:51.768Z,44.59
2017-09-16T06:33:51.750Z,45.34
2017-09-16T06:34:51.701Z,44.87
2017-09-16T06:35:51.673Z,44.56
2017-09-16T06:36:51.654Z,44.95
2017-09-16T06:37:51.616Z,44.56
2017-09-16T06:38:51.593Z,44.95
2017-09-16T06:39:51.555Z,45.04
2017-09-16T06:40:51.525Z,44.56
2017-09-16T06:41:51.495Z,44.01
2017-09-16T06:42:51.464Z,43.91
2017-09-16T06:43:51.438Z,43.64
2017-09-16T06:44:51.407Z,43.72
2017-09-16T06:45:51.378Z,43.14
2017-09-16T06:46:51.352Z,43.33
2017-09-16T06:47:51.320Z,43.33
2017-09-16T06:48:51.290Z,43.72
2017-09-16T06:49:51.260Z,43.77
2017-09-16T06:50:51.243Z,46.04
2017-09-16T06:51:51.205Z,49.24
2017-09-16T06:52:51.185Z,51.50
2017-09-16T06:53:51.144Z,54.23
2017-09-16T06:54:51.125Z,56.02
2017-09-16T06:55:51.091Z,58.59
2017-09-16T06:56:51.069Z,59.52
2017-09-16T06:57:51.025Z,61.11
2017-09-16T06:58:51.026Z,62.55
2017-09-16T06:59:50.968Z,63.67
2017-09-16T07:00:50.941Z,64.43
2017-09-16T07:01:50.914Z,64.53
2017-09-16T07:02:50.889Z,65.65
2017-09-16T07:03:50.864Z,66.61
2017-09-16T07:04:50.821Z,67.56
2017-09-16T07:05:50.792Z,66.99
2017-09-16T07:06:50.773Z,67.53
2017-09-16T07:07:50.739Z,68.10
2017-09-16T07:08:50.728Z,67.91
2017-09-16T07:09:50.684Z,67.63
2017-09-16T07:10:50.643Z,68.39
2017-09-16T07:11:50.642Z,68.39
2017-09-16T07:12:50.587Z,68.77
2017-09-16T07:13:50.578Z,69.15
2017-09-16T07:14:50.521Z,69.79
2017-09-16T07:15:50.557Z,69.21
2017-09-16T07:16:50.473Z,69.92
2017-09-16T07:17:50.426Z,70.07
2017-09-16T07:18:50.399Z,69.89
2017-09-16T07:19:50.387Z,69.98
2017-09-16T07:20:50.331Z,70.75
2017-09-16T07:21:50.320Z,71.03
2017-09-16T07:22:50.274Z,71.70
2017-09-16T07:23:50.249Z,71.61
2017-09-16T07:24:50.214Z,71.51
2017-09-16T07:25:50.199Z,71.22
2017-09-16T07:26:50.149Z,71.70
2017-09-16T07:27:50.111Z,71.89
2017-09-16T07:28:50.088Z,71.67
2017-09-16T07:29:50.058Z,72.28
2017-09-16T07:30:50.019Z,71.89
2017-09-16T07:31:49.988Z,71.70
2017-09-16T07:32:49.957Z,71.89
2017-09-16T07:33:49.918Z,71.61
2017-09-16T07:34:49.893Z,72.18
2017-09-16T07:35:49.853Z,71.70
2017-09-16T07:36:49.825Z,71.70
2017-09-16T07:37:49.787Z,72.56
2017-09-16T07:38:49.771Z,72.47
2017-09-16T07:39:49.730Z,72.37
2017-09-16T07:40:49.694Z,72.75
2017-09-16T07:41:49.660Z,72.94
2017-09-16T07:42:49.634Z,72.94
2017-09-16T07:43:49.599Z,73.04
2017-09-16T07:44:49.561Z,73.04
2017-09-16T07:45:49.525Z,72.75
2017-09-16T07:46:49.499Z,72.85
2017-09-16T07:47:49.461Z,72.94
2017-09-16T07:48:49.426Z,72.18
2017-09-16T07:49:49.394Z,72.18
2017-09-16T07:50:49.368Z,71.89
2017-09-16T07:51:49.328Z,72.18
2017-09-16T07:52:49.294Z,72.37
2017-09-16T07:53:49.267Z,72.94
2017-09-16T07:54:49.228Z,72.94
2017-09-16T07:55:49.196Z,72.75
2017-09-16T07:56:49.172Z,72.47
2017-09-16T07:57:49.137Z,72.47
2017-09-16T07:58:49.104Z,72.47
2017-09-16T07:59:49.077Z,72.08
2017-09-16T08:00:49.032Z,72.47
2017-09-16T08:01:49.000Z,72.08
2017-09-16T08:02:48.968Z,72.08
2017-09-16T08:03:48.932Z,72.47
2017-09-16T08:04:48.897Z,72.85
2017-09-16T08:05:48.864Z,72.47
2017-09-16T08:06:48.839Z,72.28
2017-09-16T08:07:48.801Z,72.08
2017-09-16T08:08:48.766Z,72.18
2017-09-16T08:09:48.732Z,72.47
2017-09-16T08:10:48.700Z,72.37
2017-09-16T08:11:48.668Z,71.89
2017-09-16T08:12:48.640Z,72.75
2017-09-16T08:13:48.601Z,72.18
2017-09-16T08:14:48.568Z,72.08
2017-09-16T08:15:48.540Z,72.08
2017-09-16T08:16:48.497Z,72.18
2017-09-16T08:17:48.464Z,72.69
2017-09-16T08:18:48.748Z,71.83
2017-09-16T08:19:48.401Z,71.70
2017-09-16T08:20:48.369Z,71.70
2017-09-16T08:21:48.331Z,71.99
2017-09-16T08:22:48.302Z,71.89
2017-09-16T08:23:48.265Z,72.31
2017-09-16T08:24:48.231Z,72.31
2017-09-16T08:25:48.197Z,72.31
2017-09-16T08:26:48.173Z,71.83
2017-09-16T08:27:48.131Z,71.93
2017-09-16T08:28:48.098Z,71.45
2017-09-16T08:29:48.066Z,71.07
2017-09-16T08:30:48.041Z,70.68
2017-09-16T08:31:48.000Z,70.40
2017-09-16T08:32:47.965Z,70.11
2017-09-16T08:33:47.933Z,70.68
2017-09-16T08:34:47.900Z,71.26
2017-09-16T08:35:47.864Z,71.36
2017-09-16T08:36:47.834Z,71.73
2017-09-16T08:37:47.810Z,71.26
2017-09-16T08:38:47.763Z,71.55
2017-09-16T08:39:47.737Z,71.16
2017-09-16T08:40:47.698Z,70.78
2017-09-16T08:41:47.666Z,71.16
2017-09-16T08:42:47.634Z,71.93
2017-09-16T08:43:47.598Z,72.66
2017-09-16T08:44:47.571Z,72.75
2017-09-16T08:45:47.532Z,72.85
2017-09-16T08:46:47.501Z,73.04
2017-09-16T08:47:47.467Z,73.08
2017-09-16T08:48:47.435Z,72.60
2017-09-16T08:49:47.409Z,72.12
2017-09-16T08:50:47.364Z,71.93
2017-09-16T08:51:47.342Z,71.83
2017-09-16T08:52:47.300Z,71.83
2017-09-16T08:53:47.267Z,72.69
2017-09-16T08:54:47.235Z,71.83
2017-09-16T08:55:47.200Z,71.64
2017-09-16T08:56:47.167Z,72.79
2017-09-16T08:57:47.136Z,71.64
2017-09-16T08:58:47.100Z,71.83
2017-09-16T08:59:47.069Z,72.02
2017-09-16T09:00:47.034Z,71.83
2017-09-16T09:01:47.006Z,71.36
2017-09-16T09:02:46.969Z,71.83
2017-09-16T09:03:46.935Z,71.83
2017-09-16T09:04:46.901Z,71.77
2017-09-16T09:05:46.868Z,71.45
2017-09-16T09:06:46.835Z,70.53
2017-09-16T09:07:46.834Z,70.43
2017-09-16T09:08:46.786Z,70.15
2017-09-16T09:09:46.754Z,70.05
2017-09-16T09:10:46.711Z,69.48
2017-09-16T09:11:46.670Z,69.48
2017-09-16T09:12:46.637Z,68.80
2017-09-16T09:13:46.613Z,69.29
2017-09-16T09:14:46.575Z,69.86
2017-09-16T09:15:46.542Z,69.86
2017-09-16T09:16:46.502Z,69.57
2017-09-16T09:17:46.470Z,69.86
2017-09-16T09:18:46.438Z,69.86
2017-09-16T09:19:46.412Z,69.70
2017-09-16T09:20:46.372Z,68.71
2017-09-16T09:21:46.340Z,68.46
2017-09-16T09:22:46.305Z,68.33
2017-09-16T09:23:46.269Z,68.74
2017-09-16T09:24:46.239Z,68.84
2017-09-16T09:25:46.218Z,68.94
2017-09-16T09:26:46.172Z,68.74
2017-09-16T09:27:46.142Z,67.88
2017-09-16T09:28:46.109Z,67.88
2017-09-16T09:29:46.076Z,67.02
2017-09-16T09:30:46.052Z,67.44
2017-09-16T09:31:46.015Z,67.60
2017-09-16T09:32:45.978Z,67.25
2017-09-16T09:33:45.950Z,67.25
2017-09-16T09:34:45.929Z,66.67
2017-09-16T09:35:45.875Z,66.86
2017-09-16T09:36:45.848Z,66.67
2017-09-16T09:37:45.828Z,65.71
2017-09-16T09:38:45.800Z,66.09
2017-09-16T09:39:45.752Z,65.14
2017-09-16T09:40:45.754Z,64.95
2017-09-16T09:41:45.688Z,63.89
2017-09-16T09:42:45.657Z,65.14
2017-09-16T09:43:45.624Z,65.33
2017-09-16T09:44:45.583Z,66.48
2017-09-16T09:45:45.571Z,65.91
2017-09-16T09:46:45.546Z,66.58
2017-09-16T09:47:45.488Z,65.81
2017-09-16T09:48:45.457Z,65.91
2017-09-16T09:49:45.444Z,65.71
2017-09-16T09:50:45.397Z,65.71
2017-09-16T09:51:45.372Z,65.75
2017-09-16T09:52:45.333Z,64.02
2017-09-16T09:53:45.307Z,64.02
2017-09-16T09:54:45.262Z,64.22
2017-09-16T09:55:45.235Z,63.64
2017-09-16T09:56:45.222Z,63.92
2017-09-16T09:57:45.192Z,63.92
2017-09-16T09:58:45.157Z,63.64
2017-09-16T09:59:45.107Z,63.92
2017-09-16T10:00:45.145Z,63.54
2017-09-16T10:01:45.066Z,63.67
2017-09-16T10:02:45.038Z,63.76
2017-09-16T10:03:45.041Z,63.76
2017-09-16T10:04:45.055Z,62.52
2017-09-16T10:05:44.911Z,62.74
2017-09-16T10:06:44.880Z,61.49
2017-09-16T10:07:44.855Z,61.94
2017-09-16T10:08:44.818Z,61.98
2017-09-16T10:09:44.776Z,61.98
2017-09-16T10:10:44.754Z,61.11
2017-09-16T10:11:44.781Z,61.21
2017-09-16T10:12:44.687Z,60.44
2017-09-16T10:13:44.655Z,60.15
2017-09-16T10:14:44.623Z,60.25
2017-09-16T10:15:44.585Z,60.44
2017-09-16T10:16:44.559Z,60.15
2017-09-16T10:17:44.521Z,60.72
2017-09-16T10:18:44.493Z,60.44
2017-09-16T10:19:44.462Z,60.92
2017-09-16T10:20:44.430Z,61.02
2017-09-16T10:21:44.399Z,61.98
2017-09-16T10:22:44.366Z,61.75
2017-09-16T10:23:44.332Z,61.02
2017-09-16T10:24:44.305Z,61.02
2017-09-16T10:25:44.273Z,61.21
2017-09-16T10:26:44.245Z,62.13
2017-09-16T10:27:44.238Z,62.23
2017-09-16T10:28:44.178Z,62.23
2017-09-16T10:29:44.146Z,61.78
2017-09-16T10:30:44.119Z,61.11
2017-09-16T10:31:44.094Z,61.40
2017-09-16T10:32:44.054Z,61.75
2017-09-16T10:33:44.020Z,61.69
2017-09-16T10:34:43.990Z,61.98
2017-09-16T10:35:43.966Z,60.92
2017-09-16T10:36:43.925Z,60.35
2017-09-16T10:37:43.897Z,60.15
2017-09-16T10:38:43.863Z,60.05
2017-09-16T10:39:43.832Z,59.58
2017-09-16T10:40:43.802Z,59.09
2017-09-16T10:41:43.768Z,58.62
2017-09-16T10:42:43.739Z,57.85
2017-09-16T10:43:43.710Z,58.23
2017-09-16T10:44:43.678Z,58.04
2017-09-16T10:45:43.652Z,58.42
2017-09-16T10:46:43.614Z,58.91
2017-09-16T10:47:43.587Z,59.58
2017-09-16T10:48:43.552Z,59.00
2017-09-16T10:49:43.524Z,59.38
2017-09-16T10:50:43.491Z,59.67
2017-09-16T10:51:43.462Z,58.55
2017-09-16T10:52:43.428Z,58.07
2017-09-16T10:53:43.450Z,57.75
2017-09-16T10:54:43.364Z,58.04
2017-09-16T10:55:43.334Z,58.17
2017-09-16T10:56:43.302Z,57.97
2017-09-16T10:57:43.278Z,57.88
2017-09-16T10:58:43.243Z,57.88
2017-09-16T10:59:43.210Z,57.97
2017-09-16T11:00:43.179Z,58.55
2017-09-16T11:01:43.147Z,57.88
2017-09-16T11:02:43.114Z,58.07
2017-09-16T11:03:43.089Z,57.62
2017-09-16T11:04:43.058Z,56.73
2017-09-16T11:05:43.029Z,56.24
2017-09-16T11:06:42.993Z,56.05
2017-09-16T11:07:42.965Z,56.15
2017-09-16T11:08:42.937Z,57.01
2017-09-16T11:09:42.909Z,56.82
2017-09-16T11:10:42.873Z,57.59
2017-09-16T11:11:42.841Z,57.21
2017-09-16T11:12:42.811Z,56.46
2017-09-16T11:13:42.779Z,56.15
2017-09-16T11:14:42.756Z,56.24
2017-09-16T11:15:42.726Z,56.44
2017-09-16T11:16:42.696Z,57.08
2017-09-16T11:17:42.658Z,56.53
2017-09-16T11:18:42.625Z,57.59
2017-09-16T11:19:42.593Z,58.07
2017-09-16T11:20:42.565Z,57.97
2017-09-16T11:21:42.534Z,58.07
2017-09-16T11:22:42.514Z,58.81
2017-09-16T11:23:42.470Z,57.08
2017-09-16T11:24:42.440Z,56.24
2017-09-16T11:25:42.409Z,56.44
2017-09-16T11:26:42.379Z,56.24
2017-09-16T11:27:42.355Z,55.96
2017-09-16T11:28:42.319Z,56.24
2017-09-16T11:29:42.289Z,55.57
2017-09-16T11:30:42.255Z,55.67
2017-09-16T11:31:42.223Z,55.19
2017-09-16T11:32:42.195Z,54.71
2017-09-16T11:33:42.170Z,55.32
2017-09-16T11:34:42.133Z,54.25
2017-09-16T11:35:42.101Z,53.70
2017-09-16T11:36:42.074Z,53.13
2017-09-16T11:37:42.042Z,53.13
2017-09-16T11:38:42.009Z,52.75
2017-09-16T11:39:41.986Z,53.45
2017-09-16T11:40:41.948Z,53.45
2017-09-16T11:41:41.918Z,51.62
2017-09-16T11:42:41.887Z,51.91
2017-09-16T11:43:41.858Z,51.43
2017-09-16T11:44:41.832Z,52.20
2017-09-16T11:45:41.796Z,51.43
2017-09-16T11:46:41.766Z,52.00
2017-09-16T11:47:41.741Z,52.97
2017-09-16T11:48:41.707Z,52.97
2017-09-16T11:49:41.673Z,54.09
2017-09-16T11:50:41.652Z,54.09
2017-09-16T11:51:41.625Z,54.16
2017-09-16T11:52:41.588Z,54.25
2017-09-16T11:53:41.562Z,54.35
2017-09-16T11:54:41.530Z,55.22
2017-09-16T11:55:41.498Z,55.12
2017-09-16T11:56:41.464Z,55.96
2017-09-16T11:57:41.435Z,56.56
2017-09-16T11:58:41.414Z,56.18
2017-09-16T11:59:41.378Z,55.67
2017-09-16T12:00:41.347Z,55.38
2017-09-16T12:01:41.323Z,56.05
2017-09-16T12:02:41.285Z,55.77
2017-09-16T12:03:41.253Z,56.05
2017-09-16T12:04:41.233Z,55.86
2017-09-16T12:05:41.203Z,54.93
2017-09-16T12:06:41.163Z,54.55
2017-09-16T12:07:41.165Z,54.74
2017-09-16T12:08:41.103Z,55.51
2017-09-16T12:09:41.109Z,55.99
2017-09-16T12:10:41.052Z,55.32
2017-09-16T12:11:41.011Z,55.51
2017-09-16T12:12:40.990Z,55.69
2017-09-16T12:13:40.953Z,55.79
2017-09-16T12:14:40.940Z,55.51
2017-09-16T12:15:40.902Z,55.32
2017-09-16T12:16:40.871Z,55.41
2017-09-16T12:17:40.859Z,55.41
2017-09-16T12:18:40.821Z,55.69
2017-09-16T12:19:40.777Z,55.60
2017-09-16T12:20:40.741Z,55.60
2017-09-16T12:21:40.739Z,56.27
2017-09-16T12:22:40.692Z,57.04
2017-09-16T12:23:40.666Z,56.95
2017-09-16T12:24:40.623Z,56.85
2017-09-16T12:25:40.595Z,56.85
2017-09-16T12:26:40.554Z,57.04
2017-09-16T12:27:40.533Z,57.23
2017-09-16T12:28:40.505Z,57.04
2017-09-16T12:29:40.475Z,57.21
2017-09-16T12:30:40.457Z,56.73
2017-09-16T12:31:40.411Z,56.92
2017-09-16T12:32:40.381Z,55.86
2017-09-16T12:33:40.359Z,56.34
2017-09-16T12:34:40.327Z,55.67
2017-09-16T12:35:40.295Z,56.70
2017-09-16T12:36:40.257Z,56.98
2017-09-16T12:37:40.319Z,57.65
2017-09-16T12:38:40.213Z,57.75
2017-09-16T12:39:40.191Z,57.56
2017-09-16T12:40:40.145Z,57.75
2017-09-16T12:41:40.115Z,58.04
2017-09-16T12:42:40.072Z,58.71
2017-09-16T12:43:40.040Z,58.04
2017-09-16T12:44:40.013Z,58.17
2017-09-16T12:45:39.988Z,57.68
2017-09-16T12:46:39.949Z,56.82
2017-09-16T12:47:39.932Z,56.05
2017-09-16T12:48:39.893Z,56.34
2017-09-16T12:49:39.867Z,56.24
2017-09-16T12:50:39.857Z,56.24
2017-09-16T12:51:39.803Z,55.99